Погода Инглвудна неделю

Калифорния, США

01 - 07 сентября
  • 01сентября
    Сегодня
    +18°
    +24°
    Ясно и безоблачно
    ВремяПогодаТемператураВлажностьДавлениеВетер, м/сВероятность осадков
    02:00Ясно и безоблачно+18°C78 %758 мм2.7 м/с2 %
    05:00Ясно и безоблачно+17°C81 %757 мм2.0 м/с2 %
    08:00Ясно и безоблачно+18°C76 %758 мм1.5 м/с2 %
    11:00Ясно и безоблачно+22°C61 %758 мм4.2 м/с2 %
    14:00Ясно и безоблачно+24°C57 %758 мм5.9 м/с2 %
    17:00Ясно и безоблачно+23°C59 %757 мм6.8 м/с2 %
    20:00Ясно и безоблачно+21°C67 %757 мм4.9 м/с2 %
    23:00Ясно и безоблачно+20°C70 %758 мм3.1 м/с2 %
  • 02сентября
    Среда
    +19°
    +25°
    Ясно и безоблачно
    ВремяПогодаТемператураВлажностьДавлениеВетер, м/сВероятность осадков
    02:00Ясно и безоблачно+19°C74 %758 мм1.7 м/с2 %
    05:00Ясно и безоблачно+19°C75 %758 мм1.4 м/с2 %
    08:00Ясно и безоблачно+20°C73 %758 мм1.5 м/с2 %
    11:00Ясно и безоблачно+24°C57 %759 мм3.7 м/с2 %
    14:00Ясно и безоблачно+25°C52 %758 мм5.5 м/с2 %
    17:00Ясно и безоблачно+23°C59 %757 мм6.7 м/с2 %
    20:00Ясно и безоблачно+22°C62 %756 мм5.1 м/с2 %
    23:00Ясно и безоблачно+21°C72 %757 мм2.9 м/с2 %
  • 03сентября
    Четверг
    +19°
    +26°
    Ясно и безоблачно
    ВремяПогодаТемператураВлажностьДавлениеВетер, м/сВероятность осадков
    02:00Ясно и безоблачно+20°C80 %757 мм1.7 м/с2 %
    05:00Ясно и безоблачно+20°C81 %756 мм1.7 м/с2 %
    08:00Ясно и безоблачно+21°C74 %757 мм2.1 м/с2 %
    11:00Ясно и безоблачно+24°C55 %757 мм3.7 м/с2 %
    14:00Ясно и безоблачно+25°C58 %756 мм5.7 м/с2 %
    17:00Ясно и безоблачно+24°C64 %755 мм6.7 м/с2 %
    20:00Ясно и безоблачно+21°C70 %755 мм5.5 м/с2 %
    23:00Ясно и безоблачно+21°C75 %756 мм3.1 м/с2 %
  • 04сентября
    Пятница
    +19°
    +27°
    Ясно и безоблачно
    ВремяПогодаТемператураВлажностьДавлениеВетер, м/сВероятность осадков
    02:00Ясно и безоблачно+20°C83 %756 мм1.6 м/с2 %
    05:00Ясно и безоблачно+20°C83 %755 мм1.9 м/с2 %
    08:00Ясно и безоблачно+21°C76 %756 мм1.5 м/с2 %
    11:00Ясно и безоблачно+25°C58 %757 мм3.5 м/с2 %
    14:00Ясно и безоблачно+26°C55 %755 мм5.9 м/с2 %
    17:00Ясно и безоблачно+24°C66 %755 мм6.3 м/с2 %
    20:00Ясно и безоблачно+21°C76 %755 мм4.2 м/с2 %
    23:00Ясно и безоблачно+21°C77 %756 мм2.2 м/с2 %
  • 05сентября
    Суббота
    +21°
    +27°
    Ясно и безоблачно
    ВремяПогодаТемператураВлажностьДавлениеВетер, м/сВероятность осадков
    02:00Ясно и безоблачно+20°C80 %756 мм1.5 м/с2 %
    05:00Ясно и безоблачно+20°C80 %756 мм1.0 м/с4 %
    08:00Ясно и безоблачно+22°C73 %757 мм0.7 м/с11 %
    11:00Ясно и безоблачно+26°C47 %757 мм3.2 м/с14 %
    14:00Ясно и безоблачно+27°C52 %756 мм5.3 м/с19 %
    17:00Ясно и безоблачно+25°C58 %755 мм6.0 м/с13 %
    20:00Ясно и безоблачно+22°C70 %755 мм4.0 м/с16 %
    23:00Ясно и безоблачно+22°C70 %756 мм2.0 м/с20 %
  • 06сентября
    Воскресенье
    +18°
    +27°
    Ясно и безоблачно
    ВремяПогодаТемператураВлажностьДавлениеВетер, м/сВероятность осадков
    05:00Ясно и безоблачно+22°C74 %756 мм1.2 м/с31 %
    11:00Ясно и безоблачно+25°C63 %756 мм2.9 м/с37 %
    17:00Ясно и безоблачно+26°C75 %755 мм4.5 м/с33 %
    23:00Ясно и безоблачно+22°C70 %756 мм1.9 м/с24 %
  • 07сентября
    Понедельник
    +17°
    +29°
    Ясно и безоблачно
    ВремяПогодаТемператураВлажностьДавлениеВетер, м/сВероятность осадков
    05:00Ясно и безоблачно+19°C82 %755 мм1.6 м/с19 %
    11:00Ясно и безоблачно+27°C52 %756 мм2.2 м/с26 %
    17:00Ясно и безоблачно+26°C48 %754 мм3.9 м/с21 %
    23:00Ясно и безоблачно+20°C76 %755 мм1.7 м/с14 %
Мы используем cookies
Соглашаюсь